sensor_id;sensor_type;location;lat;lon;timestamp;pressure;altitude;pressure_sealevel;temperature;humidity
77702;BME280;66868;42.708;23.404;2023-07-13T00:01:39;95433.00;;;23.73;69.57
77702;BME280;66868;42.708;23.404;2023-07-13T00:04:38;95439.81;;;23.74;69.60
77702;BME280;66868;42.708;23.404;2023-07-13T00:07:17;95431.06;;;23.59;69.67
77702;BME280;66868;42.708;23.404;2023-07-13T00:09:48;95434.31;;;23.53;69.70
77702;BME280;66868;42.708;23.404;2023-07-13T00:12:34;95432.34;;;23.39;69.61
77702;BME280;66868;42.708;23.404;2023-07-13T00:15:10;95437.84;;;23.44;69.94
77702;BME280;66868;42.708;23.404;2023-07-13T00:17:37;95437.53;;;23.47;69.99
77702;BME280;66868;42.708;23.404;2023-07-13T00:20:04;95431.22;;;23.49;69.88
77702;BME280;66868;42.708;23.404;2023-07-13T00:22:30;95441.25;;;23.52;69.69
77702;BME280;66868;42.708;23.404;2023-07-13T00:24:55;95419.41;;;23.39;69.92
77702;BME280;66868;42.708;23.404;2023-07-13T00:27:22;95414.41;;;23.45;70.60
77702;BME280;66868;42.708;23.404;2023-07-13T00:29:47;95418.78;;;23.45;70.84
77702;BME280;66868;42.708;23.404;2023-07-13T00:32:13;95417.78;;;23.38;70.06
77702;BME280;66868;42.708;23.404;2023-07-13T00:34:39;95418.75;;;23.28;70.58
77702;BME280;66868;42.708;23.404;2023-07-13T00:37:06;95420.84;;;23.25;71.00
77702;BME280;66868;42.708;23.404;2023-07-13T00:39:33;95421.31;;;23.20;70.75
77702;BME280;66868;42.708;23.404;2023-07-13T00:41:59;95419.22;;;23.16;70.99
77702;BME280;66868;42.708;23.404;2023-07-13T00:44:25;95418.34;;;22.91;72.52
77702;BME280;66868;42.708;23.404;2023-07-13T00:46:51;95422.22;;;22.95;71.97
77702;BME280;66868;42.708;23.404;2023-07-13T00:49:20;95425.16;;;23.00;72.36
77702;BME280;66868;42.708;23.404;2023-07-13T00:51:59;95420.59;;;22.94;72.41
77702;BME280;66868;42.708;23.404;2023-07-13T00:54:30;95407.19;;;22.82;72.47
77702;BME280;66868;42.708;23.404;2023-07-13T00:56:59;95397.97;;;22.72;72.70
77702;BME280;66868;42.708;23.404;2023-07-13T00:59:26;95423.13;;;22.70;72.63
77702;BME280;66868;42.708;23.404;2023-07-13T01:01:51;95405.44;;;22.57;72.89
77702;BME280;66868;42.708;23.404;2023-07-13T01:04:17;95415.94;;;22.56;73.04
77702;BME280;66868;42.708;23.404;2023-07-13T01:06:43;95391.19;;;22.37;73.40
77702;BME280;66868;42.708;23.404;2023-07-13T01:09:10;95403.91;;;22.38;73.22
77702;BME280;66868;42.708;23.404;2023-07-13T01:11:36;95405.25;;;22.42;73.81
77702;BME280;66868;42.708;23.404;2023-07-13T01:14:02;95417.75;;;22.29;75.21
77702;BME280;66868;42.708;23.404;2023-07-13T01:16:31;95412.88;;;22.18;74.68
77702;BME280;66868;42.708;23.404;2023-07-13T01:18:58;95408.63;;;22.09;74.75
77702;BME280;66868;42.708;23.404;2023-07-13T01:21:24;95409.94;;;22.13;74.84
77702;BME280;66868;42.708;23.404;2023-07-13T01:23:50;95414.28;;;22.13;74.70
77702;BME280;66868;42.708;23.404;2023-07-13T01:26:16;95408.63;;;22.09;75.03
77702;BME280;66868;42.708;23.404;2023-07-13T01:28:42;95407.00;;;22.08;74.95
77702;BME280;66868;42.708;23.404;2023-07-13T01:31:08;95409.13;;;22.13;75.53
77702;BME280;66868;42.708;23.404;2023-07-13T01:33:35;95403.97;;;22.13;75.88
77702;BME280;66868;42.708;23.404;2023-07-13T01:36:01;95413.16;;;22.15;75.44
77702;BME280;66868;42.708;23.404;2023-07-13T01:38:27;95397.63;;;22.07;75.75
77702;BME280;66868;42.708;23.404;2023-07-13T01:40:52;95414.50;;;22.19;75.47
77702;BME280;66868;42.708;23.404;2023-07-13T01:43:19;95413.38;;;22.22;75.79
77702;BME280;66868;42.708;23.404;2023-07-13T01:45:44;95417.41;;;22.24;76.23
77702;BME280;66868;42.708;23.404;2023-07-13T01:48:10;95407.06;;;22.24;76.03
77702;BME280;66868;42.708;23.404;2023-07-13T01:50:36;95400.00;;;22.26;75.82
77702;BME280;66868;42.708;23.404;2023-07-13T01:53:02;95409.66;;;22.24;75.95
77702;BME280;66868;42.708;23.404;2023-07-13T01:55:28;95408.63;;;22.09;76.60
77702;BME280;66868;42.708;23.404;2023-07-13T01:57:53;95411.59;;;21.96;76.93
77702;BME280;66868;42.708;23.404;2023-07-13T02:00:19;95388.00;;;21.66;77.75
77702;BME280;66868;42.708;23.404;2023-07-13T02:02:44;95413.72;;;21.57;79.62
77702;BME280;66868;42.708;23.404;2023-07-13T02:05:10;95404.53;;;21.20;82.27
77702;BME280;66868;42.708;23.404;2023-07-13T02:07:36;95400.78;;;21.14;82.64
77702;BME280;66868;42.708;23.404;2023-07-13T02:10:02;95381.34;;;21.02;81.67
77702;BME280;66868;42.708;23.404;2023-07-13T02:12:28;95408.59;;;21.22;82.30
77702;BME280;66868;42.708;23.404;2023-07-13T02:14:53;95403.78;;;21.27;82.22
77702;BME280;66868;42.708;23.404;2023-07-13T02:17:18;95413.88;;;21.38;81.60
77702;BME280;66868;42.708;23.404;2023-07-13T02:19:44;95410.34;;;21.39;81.66
77702;BME280;66868;42.708;23.404;2023-07-13T02:22:09;95410.22;;;21.41;81.48
77702;BME280;66868;42.708;23.404;2023-07-13T02:24:34;95420.66;;;21.39;82.18
77702;BME280;66868;42.708;23.404;2023-07-13T02:27:00;95395.78;;;21.30;82.16
77702;BME280;66868;42.708;23.404;2023-07-13T02:29:25;95420.34;;;21.42;81.94
77702;BME280;66868;42.708;23.404;2023-07-13T02:31:51;95417.41;;;21.37;81.95
77702;BME280;66868;42.708;23.404;2023-07-13T02:34:16;95410.66;;;21.36;81.68
77702;BME280;66868;42.708;23.404;2023-07-13T02:36:42;95429.25;;;21.48;82.01
77702;BME280;66868;42.708;23.404;2023-07-13T02:39:08;95433.28;;;21.50;81.55
77702;BME280;66868;42.708;23.404;2023-07-13T02:41:34;95409.03;;;21.35;80.94
77702;BME280;66868;42.708;23.404;2023-07-13T02:43:59;95412.94;;;21.39;81.17
77702;BME280;66868;42.708;23.404;2023-07-13T02:46:32;95435.88;;;21.50;81.16
77702;BME280;66868;42.708;23.404;2023-07-13T02:48:58;95421.66;;;21.46;81.35
77702;BME280;66868;42.708;23.404;2023-07-13T02:51:23;95420.72;;;21.47;80.95
77702;BME280;66868;42.708;23.404;2023-07-13T02:53:49;95435.88;;;21.50;80.74
77702;BME280;66868;42.708;23.404;2023-07-13T02:56:14;95437.44;;;21.43;81.19
77702;BME280;66868;42.708;23.404;2023-07-13T02:58:39;95395.34;;;21.17;81.50
77702;BME280;66868;42.708;23.404;2023-07-13T03:01:09;95425.13;;;21.37;81.35
77702;BME280;66868;42.708;23.404;2023-07-13T03:03:35;95432.59;;;21.40;81.16
77702;BME280;66868;42.708;23.404;2023-07-13T03:06:02;95437.06;;;21.38;81.46
77702;BME280;66868;42.708;23.404;2023-07-13T03:08:30;95422.50;;;21.29;80.83
77702;BME280;66868;42.708;23.404;2023-07-13T03:11:04;95443.03;;;21.39;81.38
77702;BME280;66868;42.708;23.404;2023-07-13T03:13:30;95435.81;;;21.25;81.05
77702;BME280;66868;42.708;23.404;2023-07-13T03:15:56;95437.44;;;21.26;81.55
77702;BME280;66868;42.708;23.404;2023-07-13T03:18:21;95429.72;;;21.26;81.40
77702;BME280;66868;42.708;23.404;2023-07-13T03:20:50;95434.13;;;21.33;81.40
77702;BME280;66868;42.708;23.404;2023-07-13T03:23:16;95439.94;;;21.35;80.48
77702;BME280;66868;42.708;23.404;2023-07-13T03:25:42;95433.47;;;21.31;80.61
77702;BME280;66868;42.708;23.404;2023-07-13T03:28:07;95434.56;;;21.29;80.69
77702;BME280;66868;42.708;23.404;2023-07-13T03:30:33;95432.94;;;21.28;80.78
77702;BME280;66868;42.708;23.404;2023-07-13T03:32:58;95433.31;;;21.15;81.17
77702;BME280;66868;42.708;23.404;2023-07-13T03:35:23;95431.69;;;21.14;81.11
77702;BME280;66868;42.708;23.404;2023-07-13T03:37:49;95437.63;;;21.14;81.79
77702;BME280;66868;42.708;23.404;2023-07-13T03:40:14;95437.78;;;20.86;83.41
77702;BME280;66868;42.708;23.404;2023-07-13T03:42:40;95436.34;;;21.01;82.07
77702;BME280;66868;42.708;23.404;2023-07-13T03:45:05;95439.44;;;21.04;81.23
77702;BME280;66868;42.708;23.404;2023-07-13T03:47:34;95438.72;;;21.12;80.40
77702;BME280;66868;42.708;23.404;2023-07-13T03:49:59;95444.13;;;21.19;79.63
77702;BME280;66868;42.708;23.404;2023-07-13T03:52:25;95441.09;;;21.23;79.34
77702;BME280;66868;42.708;23.404;2023-07-13T03:54:50;95433.25;;;21.25;79.36
77702;BME280;66868;42.708;23.404;2023-07-13T03:57:15;95438.31;;;21.34;79.26
77702;BME280;66868;42.708;23.404;2023-07-13T03:59:41;95440.44;;;21.21;80.03
77702;BME280;66868;42.708;23.404;2023-07-13T04:02:06;95449.72;;;21.32;79.33
77702;BME280;66868;42.708;23.404;2023-07-13T04:04:32;95446.03;;;21.34;79.12
77702;BME280;66868;42.708;23.404;2023-07-13T04:06:57;95438.81;;;21.20;79.17
77702;BME280;66868;42.708;23.404;2023-07-13T04:09:24;95445.97;;;21.26;78.79
77702;BME280;66868;42.708;23.404;2023-07-13T04:11:49;95444.72;;;21.30;79.57
77702;BME280;66868;42.708;23.404;2023-07-13T04:14:15;95434.13;;;21.33;79.34
77702;BME280;66868;42.708;23.404;2023-07-13T04:16:40;95432.59;;;21.40;78.59
77702;BME280;66868;42.708;23.404;2023-07-13T04:19:06;95440.13;;;21.59;78.53
77702;BME280;66868;42.708;23.404;2023-07-13T04:21:31;95454.28;;;21.73;78.06
77702;BME280;66868;42.708;23.404;2023-07-13T04:23:57;95443.53;;;21.78;77.66
77702;BME280;66868;42.708;23.404;2023-07-13T04:26:23;95457.28;;;21.86;77.40
77702;BME280;66868;42.708;23.404;2023-07-13T04:28:49;95460.38;;;21.90;77.21
77702;BME280;66868;42.708;23.404;2023-07-13T04:31:15;95454.09;;;21.92;76.88
77702;BME280;66868;42.708;23.404;2023-07-13T04:33:41;95462.44;;;22.04;76.72
77702;BME280;66868;42.708;23.404;2023-07-13T04:36:08;95462.94;;;22.08;76.67
77702;BME280;66868;42.708;23.404;2023-07-13T04:38:35;95464.59;;;22.17;76.24
77702;BME280;66868;42.708;23.404;2023-07-13T04:41:03;95463.78;;;22.16;76.04
77702;BME280;66868;42.708;23.404;2023-07-13T04:43:30;95479.03;;;22.27;75.75
77702;BME280;66868;42.708;23.404;2023-07-13T04:45:56;95476.13;;;22.30;75.25
77702;BME280;66868;42.708;23.404;2023-07-13T04:48:22;95474.50;;;22.29;75.82
77702;BME280;66868;42.708;23.404;2023-07-13T04:50:47;95465.41;;;22.17;76.71
77702;BME280;66868;42.708;23.404;2023-07-13T04:53:13;95463.75;;;22.08;76.81
77702;BME280;66868;42.708;23.404;2023-07-13T04:55:38;95464.66;;;21.99;77.89
77702;BME280;66868;42.708;23.404;2023-07-13T04:58:04;95478.22;;;22.01;78.28
77702;BME280;66868;42.708;23.404;2023-07-13T05:00:30;95474.38;;;22.05;77.07
77702;BME280;66868;42.708;23.404;2023-07-13T05:02:56;95486.72;;;22.19;78.12
77702;BME280;66868;42.708;23.404;2023-07-13T05:05:23;95489.94;;;22.21;77.58
77702;BME280;66868;42.708;23.404;2023-07-13T05:07:48;95489.28;;;22.19;77.71
77702;BME280;66868;42.708;23.404;2023-07-13T05:10:14;95493.47;;;22.20;78.71
77702;BME280;66868;42.708;23.404;2023-07-13T05:12:40;95472.53;;;21.97;79.71
77702;BME280;66868;42.708;23.404;2023-07-13T05:15:06;95487.75;;;22.09;78.27
77702;BME280;66868;42.708;23.404;2023-07-13T05:17:31;95491.88;;;22.19;77.70
77702;BME280;66868;42.708;23.404;2023-07-13T05:19:56;95482.47;;;22.10;78.32
77702;BME280;66868;42.708;23.404;2023-07-13T05:22:22;95483.38;;;22.27;77.71
77702;BME280;66868;42.708;23.404;2023-07-13T05:24:47;95485.88;;;22.44;76.99
77702;BME280;66868;42.708;23.404;2023-07-13T05:27:13;95492.06;;;22.52;76.56
77702;BME280;66868;42.708;23.404;2023-07-13T05:29:38;95447.50;;;22.41;75.97
77702;BME280;66868;42.708;23.404;2023-07-13T05:32:04;95489.94;;;22.73;75.42
77702;BME280;66868;42.708;23.404;2023-07-13T05:34:29;95483.66;;;22.75;75.51
77702;BME280;66868;42.708;23.404;2023-07-13T05:36:55;95488.22;;;22.89;74.25
77702;BME280;66868;42.708;23.404;2023-07-13T05:39:20;95498.78;;;23.04;72.76
77702;BME280;66868;42.708;23.404;2023-07-13T05:41:46;95492.16;;;23.02;71.36
77702;BME280;66868;42.708;23.404;2023-07-13T05:44:11;95503.34;;;23.18;71.45
77702;BME280;66868;42.708;23.404;2023-07-13T05:46:36;95496.88;;;23.22;70.64
77702;BME280;66868;42.708;23.404;2023-07-13T05:49:02;95502.88;;;23.31;70.27
77702;BME280;66868;42.708;23.404;2023-07-13T05:51:29;95494.66;;;23.35;70.37
77702;BME280;66868;42.708;23.404;2023-07-13T05:53:57;95496.47;;;23.43;69.87
77702;BME280;66868;42.708;23.404;2023-07-13T05:56:23;95495.66;;;23.34;69.92
77702;BME280;66868;42.708;23.404;2023-07-13T05:58:49;95504.75;;;23.47;69.79
77702;BME280;66868;42.708;23.404;2023-07-13T06:01:15;95488.91;;;23.50;69.91
77702;BME280;66868;42.708;23.404;2023-07-13T06:03:41;95484.34;;;23.44;69.46
77702;BME280;66868;42.708;23.404;2023-07-13T06:06:08;95482.94;;;23.65;68.98
77702;BME280;66868;42.708;23.404;2023-07-13T06:08:34;95486.81;;;23.77;68.56
77702;BME280;66868;42.708;23.404;2023-07-13T06:13:29;95480.06;;;23.85;68.24
77702;BME280;66868;42.708;23.404;2023-07-13T06:15:54;95505.75;;;24.02;68.17
77702;BME280;66868;42.708;23.404;2023-07-13T06:18:19;95491.19;;;24.09;67.61
77702;BME280;66868;42.708;23.404;2023-07-13T06:20:45;95495.91;;;24.22;67.01
77702;BME280;66868;42.708;23.404;2023-07-13T06:23:10;95450.94;;;24.07;66.76
77702;BME280;66868;42.708;23.404;2023-07-13T06:25:36;95485.03;;;24.35;66.19
77702;BME280;66868;42.708;23.404;2023-07-13T06:28:01;95497.31;;;24.49;65.89
77702;BME280;66868;42.708;23.404;2023-07-13T06:30:27;95507.97;;;24.62;65.95
77702;BME280;66868;42.708;23.404;2023-07-13T06:32:53;95498.56;;;24.69;65.60
77702;BME280;66868;42.708;23.404;2023-07-13T06:35:18;95487.19;;;24.78;64.41
77702;BME280;66868;42.708;23.404;2023-07-13T06:37:44;95488.31;;;24.92;64.28
77702;BME280;66868;42.708;23.404;2023-07-13T06:40:09;95500.88;;;25.03;64.00
77702;BME280;66868;42.708;23.404;2023-07-13T06:42:35;95486.78;;;25.05;62.86
77702;BME280;66868;42.708;23.404;2023-07-13T06:45:00;95488.66;;;25.20;62.55
77702;BME280;66868;42.708;23.404;2023-07-13T06:47:26;95482.78;;;25.26;61.41
77702;BME280;66868;42.708;23.404;2023-07-13T06:49:51;95483.88;;;25.31;61.99
77702;BME280;66868;42.708;23.404;2023-07-13T06:52:17;95470.78;;;25.33;62.05
77702;BME280;66868;42.708;23.404;2023-07-13T06:54:42;95483.63;;;25.49;60.16
77702;BME280;66868;42.708;23.404;2023-07-13T06:57:08;95478.28;;;25.50;59.53
77702;BME280;66868;42.708;23.404;2023-07-13T06:59:33;95481.28;;;25.62;59.14
77702;BME280;66868;42.708;23.404;2023-07-13T07:01:58;95477.38;;;25.66;57.96
77702;BME280;66868;42.708;23.404;2023-07-13T07:04:24;95483.25;;;25.60;58.52
77702;BME280;66868;42.708;23.404;2023-07-13T07:06:49;95489.06;;;25.62;58.94
77702;BME280;66868;42.708;23.404;2023-07-13T07:09:15;95476.09;;;25.62;58.83
77702;BME280;66868;42.708;23.404;2023-07-13T07:11:42;95485.19;;;25.81;58.38
77702;BME280;66868;42.708;23.404;2023-07-13T07:14:07;95482.09;;;25.85;57.67
77702;BME280;66868;42.708;23.404;2023-07-13T07:16:33;95487.91;;;25.87;57.80
77702;BME280;66868;42.708;23.404;2023-07-13T07:18:58;95489.03;;;25.93;57.74
77702;BME280;66868;42.708;23.404;2023-07-13T07:21:24;95469.22;;;25.92;57.17
77702;BME280;66868;42.708;23.404;2023-07-13T07:23:49;95486.91;;;26.11;57.48
77702;BME280;66868;42.708;23.404;2023-07-13T07:26:14;95470.91;;;26.08;57.92
77702;BME280;66868;42.708;23.404;2023-07-13T07:28:40;95486.78;;;26.27;58.62
77702;BME280;66868;42.708;23.404;2023-07-13T07:31:06;95486.38;;;26.38;58.96
77702;BME280;66868;42.708;23.404;2023-07-13T07:33:33;95484.38;;;26.55;57.32
77702;BME280;66868;42.708;23.404;2023-07-13T07:35:59;95478.06;;;26.58;56.31
77702;BME280;66868;42.708;23.404;2023-07-13T07:38:24;95461.66;;;26.57;56.61
77702;BME280;66868;42.708;23.404;2023-07-13T07:40:51;95472.22;;;26.70;56.54
77702;BME280;66868;42.708;23.404;2023-07-13T07:43:16;95468.53;;;26.79;56.43
77702;BME280;66868;42.708;23.404;2023-07-13T07:45:44;95404.59;;;26.49;56.03
77702;BME280;66868;42.708;23.404;2023-07-13T07:48:09;95466.94;;;26.93;54.88
77702;BME280;66868;42.708;23.404;2023-07-13T07:50:35;95473.47;;;27.04;55.38
77702;BME280;66868;42.708;23.404;2023-07-13T07:53:00;95456.91;;;27.05;55.43
77702;BME280;66868;42.708;23.404;2023-07-13T07:55:27;95463.47;;;27.22;54.32
77702;BME280;66868;42.708;23.404;2023-07-13T07:57:52;95461.03;;;27.35;53.48
77702;BME280;66868;42.708;23.404;2023-07-13T08:00:18;95456.06;;;27.40;54.27
77702;BME280;66868;42.708;23.404;2023-07-13T08:02:44;95449.88;;;27.41;54.93
77702;BME280;66868;42.708;23.404;2023-07-13T08:05:10;95455.63;;;27.51;54.33
77702;BME280;66868;42.708;23.404;2023-07-13T08:07:37;95445.81;;;27.53;53.94
77702;BME280;66868;42.708;23.404;2023-07-13T08:10:03;95440.94;;;27.65;53.84
77702;BME280;66868;42.708;23.404;2023-07-13T08:12:29;95439.56;;;27.69;54.01
77702;BME280;66868;42.708;23.404;2023-07-13T08:14:54;95434.53;;;27.67;53.90
77702;BME280;66868;42.708;23.404;2023-07-13T08:17:24;95440.50;;;27.83;52.95
77702;BME280;66868;42.708;23.404;2023-07-13T08:19:50;95436.13;;;27.90;52.46
77702;BME280;66868;42.708;23.404;2023-07-13T08:22:15;95446.84;;;28.01;52.02
77702;BME280;66868;42.708;23.404;2023-07-13T08:24:41;95435.41;;;28.02;51.52
77702;BME280;66868;42.708;23.404;2023-07-13T08:27:13;95429.28;;;28.10;51.04
77702;BME280;66868;42.708;23.404;2023-07-13T08:29:39;95431.59;;;28.20;51.54
77702;BME280;66868;42.708;23.404;2023-07-13T08:32:06;95430.03;;;28.25;51.70
77702;BME280;66868;42.708;23.404;2023-07-13T08:34:34;95419.44;;;28.33;51.73
77702;BME280;66868;42.708;23.404;2023-07-13T08:37:03;95417.66;;;28.40;52.14
77702;BME280;66868;42.708;23.404;2023-07-13T08:39:30;95402.66;;;28.42;51.71
77702;BME280;66868;42.708;23.404;2023-07-13T08:42:01;95410.16;;;28.59;52.09
77702;BME280;66868;42.708;23.404;2023-07-13T08:44:41;95411.59;;;28.68;51.76
77702;BME280;66868;42.708;23.404;2023-07-13T08:47:09;95419.09;;;28.77;50.86
77702;BME280;66868;42.708;23.404;2023-07-13T08:49:37;95421.75;;;28.90;49.45
77702;BME280;66868;42.708;23.404;2023-07-13T08:52:17;95406.53;;;28.94;50.62
77702;BME280;66868;42.708;23.404;2023-07-13T08:54:52;95425.19;;;29.04;50.50
77702;BME280;66868;42.708;23.404;2023-07-13T08:57:26;95417.78;;;29.01;50.27
77702;BME280;66868;42.708;23.404;2023-07-13T08:59:55;95432.25;;;29.10;50.54
77702;BME280;66868;42.708;23.404;2023-07-13T09:10:57;95453.25;;;29.50;50.29
77702;BME280;66868;42.708;23.404;2023-07-13T09:16:20;95433.81;;;29.59;49.20
77702;BME280;66868;42.708;23.404;2023-07-13T09:18:49;95440.63;;;29.66;48.80
77702;BME280;66868;42.708;23.404;2023-07-13T09:21:18;95452.88;;;29.79;48.58
77702;BME280;66868;42.708;23.404;2023-07-13T09:23:47;95453.09;;;29.84;49.00
77702;BME280;66868;42.708;23.404;2023-07-13T09:26:17;95451.72;;;29.95;49.60
77702;BME280;66868;42.708;23.404;2023-07-13T09:28:45;95450.53;;;30.10;49.72
77702;BME280;66868;42.708;23.404;2023-07-13T09:33:56;95444.88;;;30.13;50.49
77702;BME280;66868;42.708;23.404;2023-07-13T09:36:29;95452.50;;;30.28;50.48
77702;BME280;66868;42.708;23.404;2023-07-13T09:39:29;95425.97;;;30.24;50.66
77702;BME280;66868;42.708;23.404;2023-07-13T09:42:12;95453.69;;;30.39;49.75
77702;BME280;66868;42.708;23.404;2023-07-13T09:44:55;95434.41;;;30.40;49.43
77702;BME280;66868;42.708;23.404;2023-07-13T09:47:31;95446.84;;;30.57;48.66
77702;BME280;66868;42.708;23.404;2023-07-13T09:50:04;95441.84;;;30.56;49.11
77702;BME280;66868;42.708;23.404;2023-07-13T09:55:27;95430.69;;;30.80;47.77
77702;BME280;66868;42.708;23.404;2023-07-13T09:57:54;95421.81;;;30.88;47.63
77702;BME280;66868;42.708;23.404;2023-07-13T10:00:28;95418.34;;;31.00;48.26
77702;BME280;66868;42.708;23.404;2023-07-13T10:03:06;95412.50;;;31.05;47.87
77702;BME280;66868;42.708;23.404;2023-07-13T10:05:44;95403.16;;;31.22;47.80
77702;BME280;66868;42.708;23.404;2023-07-13T10:08:26;95409.72;;;31.38;47.69
77702;BME280;66868;42.708;23.404;2023-07-13T10:11:31;95391.72;;;31.48;48.15
77702;BME280;66868;42.708;23.404;2023-07-13T10:14:03;95403.13;;;31.60;48.27
77702;BME280;66868;42.708;23.404;2023-07-13T10:16:35;95389.19;;;31.66;47.05
77702;BME280;66868;42.708;23.404;2023-07-13T10:19:15;95400.75;;;31.83;44.94
77702;BME280;66868;42.708;23.404;2023-07-13T10:21:57;95405.88;;;31.96;44.26
77702;BME280;66868;42.708;23.404;2023-07-13T10:24:26;95398.16;;;32.01;45.19
77702;BME280;66868;42.708;23.404;2023-07-13T10:26:57;95402.00;;;32.24;45.56
77702;BME280;66868;42.708;23.404;2023-07-13T10:29:27;95392.28;;;32.31;45.65
77702;BME280;66868;42.708;23.404;2023-07-13T10:31:53;95383.09;;;32.40;45.66
77702;BME280;66868;42.708;23.404;2023-07-13T10:34:19;95386.75;;;32.57;45.30
77702;BME280;66868;42.708;23.404;2023-07-13T10:36:46;95363.34;;;32.56;44.95
77702;BME280;66868;42.708;23.404;2023-07-13T10:39:19;95381.19;;;32.83;43.18
77702;BME280;66868;42.708;23.404;2023-07-13T10:41:49;95368.66;;;32.85;41.52
77702;BME280;66868;42.708;23.404;2023-07-13T10:44:29;95364.84;;;33.00;42.29
77702;BME280;66868;42.708;23.404;2023-07-13T10:46:58;95375.34;;;33.18;42.74
77702;BME280;66868;42.708;23.404;2023-07-13T10:49:26;95378.91;;;33.35;42.96
77702;BME280;66868;42.708;23.404;2023-07-13T10:51:53;95364.56;;;33.49;44.22
77702;BME280;66868;42.708;23.404;2023-07-13T10:54:21;95354.44;;;33.64;43.00
77702;BME280;66868;42.708;23.404;2023-07-13T10:56:50;95348.38;;;33.64;40.84
77702;BME280;66868;42.708;23.404;2023-07-13T10:59:27;95354.25;;;33.78;38.92
77702;BME280;66868;42.708;23.404;2023-07-13T11:04:20;95360.63;;;34.05;40.67
77702;BME280;66868;42.708;23.404;2023-07-13T11:06:48;95345.22;;;34.20;36.81
77702;BME280;66868;42.708;23.404;2023-07-13T11:09:35;95351.25;;;34.32;33.11
77702;BME280;66868;42.708;23.404;2023-07-13T11:12:50;95350.66;;;34.53;35.70
77702;BME280;66868;42.708;23.404;2023-07-13T11:15:27;95344.44;;;34.59;38.29
77702;BME280;66868;42.708;23.404;2023-07-13T11:17:55;95332.00;;;34.67;38.30
77702;BME280;66868;42.708;23.404;2023-07-13T11:20:42;95339.63;;;34.80;32.92
77702;BME280;66868;42.708;23.404;2023-07-13T11:23:18;95346.00;;;34.84;28.92
77702;BME280;66868;42.708;23.404;2023-07-13T11:25:44;95327.75;;;34.77;27.62
77702;BME280;66868;42.708;23.404;2023-07-13T11:30:47;95339.00;;;34.89;27.86
77702;BME280;66868;42.708;23.404;2023-07-13T11:33:22;95315.09;;;34.91;27.01
77702;BME280;66868;42.708;23.404;2023-07-13T11:41:04;95316.31;;;35.28;27.69
77702;BME280;66868;42.708;23.404;2023-07-13T11:43:30;95310.16;;;35.39;28.07
77702;BME280;66868;42.708;23.404;2023-07-13T11:45:56;95312.38;;;35.47;27.18
77702;BME280;66868;42.708;23.404;2023-07-13T11:48:25;95331.19;;;35.68;27.87
77702;BME280;66868;42.708;23.404;2023-07-13T11:50:54;95300.16;;;35.58;26.46
77702;BME280;66868;42.708;23.404;2023-07-13T11:53:21;95314.41;;;35.74;26.79
77702;BME280;66868;42.708;23.404;2023-07-13T11:55:47;95322.78;;;35.87;26.05
77702;BME280;66868;42.708;23.404;2023-07-13T11:58:18;95311.00;;;35.95;26.65
77702;BME280;66868;42.708;23.404;2023-07-13T12:00:44;95306.59;;;36.01;27.01
77702;BME280;66868;42.708;23.404;2023-07-13T12:03:11;95309.06;;;36.07;26.32
77702;BME280;66868;42.708;23.404;2023-07-13T12:05:36;95299.91;;;36.31;27.46
77702;BME280;66868;42.708;23.404;2023-07-13T12:08:09;95292.31;;;36.57;26.63
77702;BME280;66868;42.708;23.404;2023-07-13T12:10:36;95283.56;;;36.78;26.72
77702;BME280;66868;42.708;23.404;2023-07-13T12:13:04;95304.47;;;37.06;26.59
77702;BME280;66868;42.708;23.404;2023-07-13T12:15:38;95298.25;;;37.17;26.61
77702;BME280;66868;42.708;23.404;2023-07-13T12:18:14;95290.66;;;37.26;26.41
77702;BME280;66868;42.708;23.404;2023-07-13T12:20:40;95276.28;;;37.49;26.99
77702;BME280;66868;42.708;23.404;2023-07-13T12:23:20;95285.81;;;37.50;26.47
77702;BME280;66868;42.708;23.404;2023-07-13T12:25:47;95267.19;;;37.35;26.92
77702;BME280;66868;42.708;23.404;2023-07-13T12:28:29;95274.03;;;37.63;25.95
77702;BME280;66868;42.708;23.404;2023-07-13T12:31:01;95268.53;;;37.74;26.76
77702;BME280;66868;42.708;23.404;2023-07-13T12:33:30;95269.28;;;38.07;26.71
77702;BME280;66868;42.708;23.404;2023-07-13T12:36:00;95277.81;;;38.19;26.20
77702;BME280;66868;42.708;23.404;2023-07-13T12:38:29;95274.88;;;38.20;25.75
77702;BME280;66868;42.708;23.404;2023-07-13T12:40:55;95262.06;;;38.49;25.44
77702;BME280;66868;42.708;23.404;2023-07-13T12:43:22;95255.25;;;38.73;25.57
77702;BME280;66868;42.708;23.404;2023-07-13T12:46:13;95267.25;;;39.11;23.49
77702;BME280;66868;42.708;23.404;2023-07-13T12:48:43;95260.09;;;39.42;23.98
77702;BME280;66868;42.708;23.404;2023-07-13T12:51:14;95255.84;;;39.41;22.47
77702;BME280;66868;42.708;23.404;2023-07-13T12:53:42;95253.47;;;39.45;22.90
77702;BME280;66868;42.708;23.404;2023-07-13T12:56:17;95256.34;;;39.73;23.92
77702;BME280;66868;42.708;23.404;2023-07-13T12:58:43;95268.81;;;39.83;22.83
77702;BME280;66868;42.708;23.404;2023-07-13T13:01:12;95255.53;;;39.88;23.21
77702;BME280;66868;42.708;23.404;2023-07-13T13:03:40;95255.34;;;40.44;23.54
77702;BME280;66868;42.708;23.404;2023-07-13T13:08:40;95255.13;;;41.28;22.32
77702;BME280;66868;42.708;23.404;2023-07-13T13:11:08;95252.06;;;41.74;21.17
77702;BME280;66868;42.708;23.404;2023-07-13T13:13:34;95256.03;;;42.24;21.22
77702;BME280;66868;42.708;23.404;2023-07-13T13:18:38;95244.25;;;44.16;18.53
77702;BME280;66868;42.708;23.404;2023-07-13T13:21:03;95248.94;;;44.73;17.65
77702;BME280;66868;42.708;23.404;2023-07-13T13:23:28;95259.09;;;45.43;17.48
77702;BME280;66868;42.708;23.404;2023-07-13T13:25:54;95267.75;;;46.02;17.50
77702;BME280;66868;42.708;23.404;2023-07-13T13:28:20;95267.06;;;46.27;16.94
77702;BME280;66868;42.708;23.404;2023-07-13T13:30:48;95263.56;;;47.09;16.10